Time;durP1;ratioP1;P1;durP2;ratioP2;P2;SDS_P1;SDS_P2;PMS_P1;PMS_P2;Temp;Humidity;BMP_temperature;BMP_pressure;BME280_temperature;BME280_humidity;BME280_pressure;Samples;Min_cycle;Max_cycle;Signal;HPM_P1;HPM_P2
2022/11/15 00:00:33;;;;;;;;;;;;;;;6.83;100.00;101276.94;10556259;28;20044;-76
2022/11/15 00:05:54;;;;;;;0.40;0.40;;;;;;;6.84;100.00;101281.25;10560192;28;19920;-76
2022/11/15 00:11:14;;;;;;;0.47;0.47;;;;;;;6.85;100.00;101280.44;10548190;28;20043;-76
2022/11/15 00:16:34;;;;;;;1.75;1.15;;;;;;;6.93;100.00;101286.81;10519022;28;20052;-75
2022/11/15 00:21:54;;;;;;;2.35;0.90;;;;;;;6.92;100.00;101287.63;10537209;28;20044;-76
2022/11/15 00:27:14;;;;;;;2.47;0.65;;;;;;;6.97;100.00;101298.94;10547023;28;20052;-78
2022/11/15 00:32:34;;;;;;;0.68;0.50;;;;;;;6.96;100.00;101281.81;10547275;28;20048;-76
2022/11/15 00:37:54;;;;;;;1.70;1.00;;;;;;;7.06;100.00;101287.38;10545621;28;20044;-76
2022/11/15 00:43:14;;;;;;;0.98;0.73;;;;;;;7.09;100.00;101284.97;10530706;28;20048;-77
2022/11/15 00:48:34;;;;;;;0.35;0.35;;;;;;;7.16;100.00;101299.81;10545078;28;20040;-76
2022/11/15 00:53:54;;;;;;;1.77;1.30;;;;;;;7.19;100.00;101294.81;10545592;28;20407;-76
2022/11/15 00:59:14;;;;;;;0.88;0.85;;;;;;;7.25;100.00;101304.47;10545153;28;20490;-76
2022/11/15 01:04:35;;;;;;;;;;;;;;;7.29;100.00;101291.88;10530343;28;20402;-77
2022/11/15 01:09:55;;;;;;;0.60;0.45;;;;;;;7.32;100.00;101285.16;10503804;28;19921;-75
2022/11/15 01:15:15;;;;;;;0.45;0.45;;;;;;;7.35;100.00;101280.16;10544726;28;20052;-77
2022/11/15 01:20:41;;;;;;;1.90;0.75;;;;;;;7.42;100.00;101271.91;10534265;28;20044;-76
2022/11/15 01:26:04;;;;;;;1.42;1.30;;;;;;;7.40;100.00;101278.69;10544298;28;20063;-76
2022/11/15 01:31:24;;;;;;;0.52;0.52;;;;;;;7.42;100.00;101271.91;10544917;28;20044;-77
2022/11/15 01:36:44;;;;;;;;;;;;;;;7.47;100.00;101276.44;10545082;28;20090;-76
2022/11/15 01:42:04;;;;;;;1.08;0.82;;;;;;;7.52;100.00;101278.34;10529017;28;19971;-76
2022/11/15 01:47:35;;;;;;;0.70;0.70;;;;;;;7.68;100.00;101280.75;10517430;28;20395;-77
2022/11/15 01:52:55;;;;;;;1.90;0.73;;;;;;;7.79;100.00;101276.09;10543024;28;20419;-75
2022/11/15 01:58:16;;;;;;;0.82;0.70;;;;;;;7.88;100.00;101273.94;10540735;28;20126;-75
2022/11/15 02:03:51;;;;;;;1.45;0.93;;;;;;;7.97;100.00;101282.84;10504361;28;20039;-75
2022/11/15 02:09:12;;;;;;;8.68;1.38;;;;;;;8.00;100.00;101280.41;10541230;28;20430;-76
2022/11/15 02:14:34;;;;;;;3.95;0.90;;;;;;;8.04;100.00;101274.59;10519676;28;20534;-76
2022/11/15 02:20:25;;;;;;;0.47;0.43;;;;;;;8.07;100.00;101279.88;10547619;28;20052;-76
2022/11/15 02:26:03;;;;;;;1.25;0.82;;;;;;;8.09;100.00;101273.09;10494156;28;20502;-76
2022/11/15 02:31:32;;;;;;;0.60;0.17;;;;;;;8.15;100.00;101273.38;10541885;28;20118;-77
2022/11/15 02:37:00;;;;;;;0.80;0.57;;;;;;;8.32;100.00;101276.63;10541078;28;20119;-77
2022/11/15 02:48:26;;;;;;;0.95;0.70;;;;;;;8.46;100.00;101264.34;10541277;28;20044;-76
2022/11/15 02:53:46;;;;;;;0.65;0.60;;;;;;;8.49;100.00;101249.09;10525682;28;20056;-76
2022/11/15 02:59:30;;;;;;;1.52;1.00;;;;;;;8.60;100.00;101252.09;10540626;28;20043;-77
2022/11/15 03:04:58;;;;;;;8.35;1.98;;;;;;;8.65;100.00;101239.44;10525505;28;20471;-77
2022/11/15 03:10:42;;;;;;;2.88;1.20;;;;;;;8.69;100.00;101238.72;10525594;28;20457;-77
2022/11/15 03:16:04;;;;;;;1.30;1.20;;;;;;;8.73;100.00;101227.75;10524670;28;20056;-77
2022/11/15 03:21:24;;;;;;;0.75;0.52;;;;;;;8.77;100.00;101219.34;10525769;28;20040;-76
2022/11/15 03:26:47;;;;;;;1.88;0.98;;;;;;;8.87;100.00;101216.31;10528201;28;20055;-78
2022/11/15 03:32:13;;;;;;;4.85;1.02;;;;;;;8.89;100.00;101206.97;10511148;28;20053;-77
2022/11/15 03:37:40;;;;;;;1.70;0.80;;;;;;;8.98;100.00;101202.97;10521531;28;20036;-76
2022/11/15 03:43:35;;;;;;;1.25;0.98;;;;;;;9.04;100.00;101204.09;10540534;28;20044;-77
2022/11/15 03:49:05;;;;;;;2.00;0.55;;;;;;;9.13;100.00;101208.69;10497405;28;20085;-77
2022/11/15 03:54:25;;;;;;;1.93;0.83;;;;;;;9.18;100.00;101211.44;10535485;28;20048;-76
2022/11/15 03:59:49;;;;;;;;;;;;;;;9.32;100.00;101204.22;10524631;28;20048;-77
2022/11/15 04:05:09;;;;;;;0.85;0.47;;;;;;;9.49;100.00;101197.97;10525359;28;19931;-77
2022/11/15 04:10:29;;;;;;;1.42;1.23;;;;;;;9.57;100.00;101207.69;10540680;28;20040;-76
2022/11/15 04:15:49;;;;;;;0.82;0.70;;;;;;;9.73;100.00;101215.06;10518897;28;20097;-75
2022/11/15 04:26:47;;;;;;;0.10;0.10;;;;;;;9.74;100.00;101214.25;10504895;28;20130;-76
2022/11/15 04:32:08;;;;;;;2.47;1.08;;;;;;;9.78;100.00;101212.66;10534038;28;20047;-76
2022/11/15 04:37:28;;;;;;;;;;;;;;;9.86;100.00;101215.53;10546481;28;20131;-76
2022/11/15 04:42:48;;;;;;;0.22;0.22;;;;;;;9.83;100.00;101209.44;10530448;28;20010;-76
2022/11/15 04:48:08;;;;;;;0.75;0.73;;;;;;;9.92;100.00;101214.00;10546334;28;20044;-76
2022/11/15 04:53:28;;;;;;;0.75;0.68;;;;;;;9.91;100.00;101212.25;10558619;28;20047;-76
2022/11/15 04:58:49;;;;;;;2.70;1.33;;;;;;;10.02;100.00;101210.03;10550475;28;20131;-78
2022/11/15 05:04:19;;;;;;;0.40;0.40;;;;;;;10.00;100.00;101207.41;10545565;28;20051;-75
2022/11/15 05:09:39;;;;;;;1.23;0.90;;;;;;;10.06;100.00;101201.59;10543955;28;20044;-75
2022/11/15 05:15:01;;;;;;;0.52;0.52;;;;;;;10.19;100.00;101194.28;10530961;28;20131;-76
2022/11/15 05:20:21;;;;;;;1.52;1.00;;;;;;;10.18;100.00;101190.84;10543708;28;20044;-76
2022/11/15 05:25:42;;;;;;;2.58;0.88;;;;;;;10.14;100.00;101183.81;10514523;28;20044;-76
2022/11/15 05:31:05;;;;;;;2.75;0.77;;;;;;;10.09;100.00;101196.53;10543912;28;20119;-76
2022/11/15 05:36:36;;;;;;;1.00;0.90;;;;;;;10.12;100.00;101217.25;10542983;28;20507;-76
2022/11/15 05:42:11;;;;;;;2.60;0.65;;;;;;;10.08;100.00;101236.00;10514701;28;20048;-76
2022/11/15 05:47:35;;;;;;;2.35;1.10;;;;;;;10.09;100.00;101240.31;10528158;28;20044;-77
2022/11/15 05:52:56;;;;;;;0.35;0.35;;;;;;;10.09;100.00;101252.31;10542983;28;20063;-77
2022/11/15 05:58:23;;;;;;;0.95;0.70;;;;;;;10.07;100.00;101257.41;10543220;28;20043;-77
2022/11/15 06:03:43;;;;;;;0.40;0.40;;;;;;;10.10;100.00;101262.66;10543524;28;20040;-77
2022/11/15 06:09:03;;;;;;;0.47;0.20;;;;;;;10.12;100.00;101270.44;10531914;28;20048;-77
2022/11/15 06:14:23;;;;;;;;;;;;;;;10.14;100.00;101276.50;10546090;28;20048;-77
2022/11/15 06:19:44;;;;;;;0.77;0.53;;;;;;;10.13;100.00;101291.09;10550332;28;20279;-77
2022/11/15 06:25:04;;;;;;;0.50;0.38;;;;;;;10.15;100.00;101299.75;10570996;28;20044;-77
2022/11/15 06:30:25;;;;;;;;;;;;;;;10.15;100.00;101309.16;10565636;28;20044;-77
2022/11/15 06:35:46;;;;;;;1.85;0.73;;;;;;;10.16;100.00;101316.91;10539526;28;19920;-78
2022/11/15 06:41:08;;;;;;;3.53;1.63;;;;;;;10.16;100.00;101329.78;10542468;28;20044;-77
2022/11/15 06:46:29;;;;;;;1.02;0.75;;;;;;;10.19;100.00;101341.03;10555025;28;20446;-77
2022/11/15 06:51:49;;;;;;;0.52;0.28;;;;;;;10.22;100.00;101346.31;10549081;28;20557;-77
2022/11/15 06:57:10;;;;;;;4.38;0.93;;;;;;;10.21;100.00;101354.84;10550040;28;20047;-77
2022/11/15 07:02:30;;;;;;;0.88;0.47;;;;;;;10.23;100.00;101371.22;10546242;28;20041;-77
2022/11/15 07:07:53;;;;;;;1.80;0.90;;;;;;;10.26;100.00;101373.91;10541035;28;20048;-77
2022/11/15 07:13:13;;;;;;;0.93;0.65;;;;;;;10.29;100.00;101376.59;10525849;28;20131;-76
2022/11/15 07:18:42;;;;;;;1.45;1.10;;;;;;;10.29;100.00;101390.34;10519945;28;20044;-81
2022/11/15 07:24:03;;;;;;;1.90;0.45;;;;;;;10.27;100.00;101391.09;10516528;28;20040;-81
2022/11/15 07:29:24;;;;;;;2.42;0.70;;;;;;;10.29;100.00;101392.03;10530106;28;20487;-81
2022/11/15 07:34:47;;;;;;;0.40;0.40;;;;;;;10.34;100.00;101394.78;10518317;28;20048;-81
2022/11/15 07:40:08;;;;;;;0.22;0.22;;;;;;;10.33;100.00;101409.34;10530099;28;20036;-81
2022/11/15 07:45:29;;;;;;;0.70;0.45;;;;;;;10.28;100.00;101416.03;10525465;28;20499;-81
2022/11/15 07:50:49;;;;;;;0.30;0.17;;;;;;;10.39;100.00;101417.31;10553113;28;20048;-81
2022/11/15 07:56:10;;;;;;;0.52;0.47;;;;;;;10.42;100.00;101412.28;10565791;28;20126;-81
2022/11/15 08:01:30;;;;;;;0.85;0.77;;;;;;;10.41;100.00;101409.66;10534183;28;20036;-81
2022/11/15 08:06:51;;;;;;;0.03;0.03;;;;;;;10.43;100.00;101418.28;10513169;28;20048;-80
2022/11/15 08:12:11;;;;;;;;;;;;;;;10.56;100.00;101414.44;10519432;28;20045;-81
2022/11/15 08:17:32;;;;;;;0.98;0.88;;;;;;;10.48;100.00;101411.63;10535273;28;19976;-80
2022/11/15 08:22:52;;;;;;;0.40;0.38;;;;;;;10.48;100.00;101416.78;10542152;28;20043;-82
2022/11/15 08:28:12;;;;;;;0.10;0.10;;;;;;;10.38;100.00;101428.47;10521912;28;20052;-84
2022/11/15 08:33:33;;;;;;;2.10;0.55;;;;;;;10.25;100.00;101418.50;10530620;28;20036;-84
2022/11/15 08:38:54;;;;;;;0.57;0.30;;;;;;;10.20;100.00;101425.19;10532452;28;20052;-83
2022/11/15 08:44:15;;;;;;;1.10;0.68;;;;;;;10.16;100.00;101422.50;10531897;28;20048;-81
2022/11/15 08:49:36;;;;;;;0.70;0.65;;;;;;;10.10;100.00;101419.69;10508481;28;20411;-81
2022/11/15 08:54:57;;;;;;;0.38;0.35;;;;;;;10.15;100.00;101423.34;10507935;28;20052;-81
2022/11/15 09:00:19;;;;;;;0.52;0.40;;;;;;;10.27;100.00;101427.16;10536335;28;20040;-81
2022/11/15 09:05:40;;;;;;;6.45;0.50;;;;;;;10.29;100.00;101434.13;10543144;28;20157;-81
2022/11/15 09:11:08;;;;;;;0.00;0.00;;;;;;;10.38;100.00;101425.88;10523354;28;20051;-79
2022/11/15 09:16:30;;;;;;;0.32;0.25;;;;;;;10.36;100.00;101434.31;10525046;28;20423;-80
2022/11/15 09:21:51;;;;;;;0.45;0.45;;;;;;;10.33;100.00;101432.53;10530163;28;20123;-81
2022/11/15 09:27:13;;;;;;;0.30;0.30;;;;;;;10.34;100.00;101429.13;10526944;28;20411;-78
2022/11/15 09:32:33;;;;;;;0.17;0.10;;;;;;;10.28;100.00;101411.75;10537928;28;20040;-78
2022/11/15 09:37:58;;;;;;;1.35;0.30;;;;;;;10.37;100.00;101415.50;10541808;28;20040;-79
2022/11/15 09:43:40;;;;;;;0.00;0.00;;;;;;;10.57;100.00;101404.22;10510630;28;20040;-78
2022/11/15 09:49:04;;;;;;;0.20;0.13;;;;;;;10.51;100.00;101390.25;10499544;28;20045;-78
2022/11/15 09:54:34;;;;;;;1.35;1.08;;;;;;;10.71;100.00;101388.34;10535685;28;20526;-78
2022/11/15 10:00:24;;;;;;;0.63;0.63;;;;;;;10.95;100.00;101378.81;10494070;28;20070;-78
2022/11/15 10:05:49;;;;;;;0.20;0.20;;;;;;;10.66;100.00;101365.00;10536307;28;20051;-78
2022/11/15 10:11:03;;;;;;;0.10;0.10;;;;;;;10.79;100.00;101331.06;10540532;28;20048;-78
2022/11/15 10:16:49;;;;;;;0.25;0.25;;;;;;;10.98;100.00;101305.88;10497405;28;20051;-78
2022/11/15 10:22:11;;;;;;;0.15;0.15;;;;;;;10.78;100.00;101275.16;10498888;28;20044;-78
2022/11/15 10:27:17;;;;;;;0.20;0.20;;;;;;;11.06;100.00;101249.34;10515182;28;20063;-78
2022/11/15 10:32:20;;;;;;;2.88;0.60;;;;;;;12.39;100.00;101232.25;10505769;28;20094;-79
2022/11/15 10:37:30;;;;;;;0.30;0.20;;;;;;;12.33;100.00;101142.53;10522477;28;20089;-79
2022/11/15 10:42:32;;;;;;;0.20;0.10;;;;;;;12.48;100.00;101069.66;10528453;28;20040;-77
2022/11/15 10:47:33;;;;;;;0.40;0.28;;;;;;;12.62;100.00;101015.63;10535516;28;20294;-79
2022/11/15 10:52:46;;;;;;;1.05;0.30;;;;;;;12.41;100.00;100865.38;10546941;28;20479;-79
2022/11/15 10:58:00;;;;;;;0.45;0.40;;;;;;;12.27;100.00;100829.84;10556480;28;20403;-79
2022/11/15 11:03:06;;;;;;;0.00;0.00;;;;;;;12.40;100.00;100796.47;10526868;28;20052;-79
2022/11/15 11:08:11;;;;;;;0.03;0.03;;;;;;;12.20;100.00;100771.16;10508410;28;20049;-79
2022/11/15 11:13:31;;;;;;;0.38;0.20;;;;;;;12.62;100.00;100771.84;10510490;28;20429;-78
2022/11/15 11:18:56;;;;;;;0.00;0.00;;;;;;;13.02;100.00;100742.25;10524335;28;20105;-78
2022/11/15 11:24:08;;;;;;;0.00;0.00;;;;;;;12.77;100.00;100709.16;10530320;28;20040;-78
2022/11/15 11:29:47;;;;;;;0.90;0.40;;;;;;;13.24;100.00;100690.78;10502933;28;20052;-78
2022/11/15 11:35:04;;;;;;;0.15;0.15;;;;;;;12.66;100.00;100676.28;10533709;28;20048;-78
2022/11/15 11:46:43;;;;;;;0.98;0.35;;;;;;;12.72;100.00;100670.34;10530438;28;20453;-78
2022/11/15 11:51:55;;;;;;;0.32;0.20;;;;;;;12.59;100.00;100664.13;10503179;28;20044;-77
2022/11/15 11:56:59;;;;;;;0.00;0.00;;;;;;;13.30;100.00;100657.22;10520483;28;20032;-79
2022/11/15 12:02:14;;;;;;;0.00;0.00;;;;;;;13.23;100.00;100642.47;10521527;28;20105;-80
2022/11/15 12:07:21;;;;;;;0.00;0.00;;;;;;;13.96;100.00;100641.44;10543165;28;20466;-77
2022/11/15 12:12:27;;;;;;;0.00;0.00;;;;;;;13.70;100.00;100649.00;10512873;28;20550;-79
2022/11/15 12:17:33;;;;;;;0.00;0.00;;;;;;;13.26;100.00;100642.53;10521814;28;20433;-78
2022/11/15 12:22:44;;;;;;;0.10;0.00;;;;;;;13.39;100.00;100628.03;10516040;28;20044;-78
2022/11/15 12:41:15;;;;;;;0.10;0.10;;;;;;;13.24;100.00;100595.06;10535294;28;20043;-78
2022/11/15 12:46:29;;;;;;;0.38;0.38;;;;;;;13.66;100.00;100569.59;10506580;28;20048;-79
2022/11/15 12:51:43;;;;;;;0.08;0.08;;;;;;;13.45;100.00;100565.09;10538628;28;20074;-79
2022/11/15 12:57:14;;;;;;;0.08;0.08;;;;;;;13.48;100.00;100557.38;10522401;28;20048;-78
2022/11/15 13:09:28;;;;;;;;;;;;;;;13.30;100.00;100535.59;10539133;28;20039;-78
2022/11/15 13:14:49;;;;;;;0.30;0.30;;;;;;;13.22;100.00;100526.06;10527274;28;20436;-79
2022/11/15 13:26:46;;;;;;;0.10;0.10;;;;;;;12.92;100.00;100511.97;10527677;28;20035;-78
2022/11/15 13:31:48;;;;;;;0.10;0.10;;;;;;;12.83;100.00;100502.44;10514932;28;20044;-79
2022/11/15 13:36:50;;;;;;;0.10;0.10;;;;;;;12.67;100.00;100489.34;10503354;28;20101;-78
2022/11/15 13:42:19;;;;;;;0.13;0.13;;;;;;;12.88;100.00;100479.22;10530433;28;20045;-78
2022/11/15 13:47:21;;;;;;;0.00;0.00;;;;;;;12.72;100.00;100468.72;10533540;28;20044;-78
2022/11/15 13:52:28;;;;;;;0.00;0.00;;;;;;;12.28;100.00;100479.44;10541487;28;20044;-78
2022/11/15 13:57:41;;;;;;;0.30;0.30;;;;;;;12.25;100.00;100472.47;10511887;28;20058;-77
2022/11/15 14:02:43;;;;;;;0.00;0.00;;;;;;;12.22;100.00;100462.13;10534986;28;20118;-78
2022/11/15 14:08:25;;;;;;;0.00;0.00;;;;;;;12.20;100.00;100453.50;10523633;28;20048;-77
2022/11/15 14:13:30;;;;;;;0.00;0.00;;;;;;;12.08;100.00;100450.78;10504764;28;20048;-78
2022/11/15 14:18:44;;;;;;;0.00;0.00;;;;;;;11.97;100.00;100445.47;10541246;28;20048;-79
2022/11/15 14:23:46;;;;;;;0.10;0.10;;;;;;;11.96;100.00;100444.56;10523194;28;20040;-77
2022/11/15 14:28:48;;;;;;;3.20;0.20;;;;;;;11.82;100.00;100443.50;10540816;28;20044;-78
2022/11/15 14:33:50;;;;;;;0.05;0.05;;;;;;;11.68;100.00;100431.28;10540850;28;20395;-77
2022/11/15 14:38:51;;;;;;;0.35;0.35;;;;;;;11.64;100.00;100426.94;10538365;28;20094;-78
2022/11/15 14:44:43;;;;;;;0.20;0.03;;;;;;;11.46;100.00;100421.50;10502973;28;20060;-78
2022/11/15 14:50:38;;;;;;;0.10;0.03;;;;;;;11.23;100.00;100417.75;10537515;28;20039;-78
2022/11/15 14:55:40;;;;;;;0.00;0.00;;;;;;;11.20;100.00;100398.81;10521139;28;20058;-77
2022/11/15 15:00:42;;;;;;;0.00;0.00;;;;;;;11.16;100.00;100386.69;10521617;28;20047;-78
2022/11/15 15:05:44;;;;;;;0.20;0.15;;;;;;;11.11;100.00;100381.47;10499835;28;20052;-78
2022/11/15 15:10:46;;;;;;;0.08;0.00;;;;;;;11.09;100.00;100372.84;10498385;28;20094;-79
2022/11/15 15:15:50;;;;;;;0.00;0.00;;;;;;;11.08;100.00;100365.97;10479834;28;20094;-76
2022/11/15 15:20:57;;;;;;;0.20;0.20;;;;;;;11.10;100.00;100357.41;10511627;28;20074;-75
2022/11/15 15:25:59;;;;;;;0.28;0.20;;;;;;;11.08;100.00;100353.06;10509113;28;20586;-76
2022/11/15 15:31:02;;;;;;;0.22;0.22;;;;;;;11.07;100.00;100341.88;10499346;28;20075;-76
2022/11/15 15:36:43;;;;;;;0.40;0.35;;;;;;;11.08;100.00;100332.44;10517621;28;20086;-75
2022/11/15 15:41:46;;;;;;;0.00;0.00;;;;;;;11.00;100.00;100327.16;10536155;28;20058;-76
2022/11/15 15:46:48;;;;;;;0.32;0.32;;;;;;;10.93;100.00;100315.03;10538889;28;20087;-76
2022/11/15 15:51:50;;;;;;;0.15;0.15;;;;;;;11.13;100.00;100304.16;10524444;28;20044;-76
2022/11/15 15:56:51;;;;;;;0.15;0.15;;;;;;;11.11;100.00;100302.41;10520406;28;20140;-75
2022/11/15 16:02:22;;;;;;;0.00;0.00;;;;;;;11.12;100.00;100295.53;10520264;28;20052;-75
2022/11/15 16:14:19;;;;;;;0.00;0.00;;;;;;;11.26;100.00;100277.69;10528400;28;20475;-75
2022/11/15 16:19:22;;;;;;;0.10;0.10;;;;;;;11.11;100.00;100276.63;10545812;28;20055;-76
2022/11/15 16:24:23;;;;;;;0.00;0.00;;;;;;;11.17;100.00;100269.81;10525845;28;20067;-75
2022/11/15 16:29:25;;;;;;;0.20;0.10;;;;;;;11.26;100.00;100269.94;10539176;28;20093;-76
2022/11/15 16:35:09;;;;;;;0.20;0.20;;;;;;;11.27;100.00;100263.94;10531069;28;20041;-74
2022/11/15 16:40:22;;;;;;;0.10;0.08;;;;;;;11.33;100.00;100265.72;10563047;28;20119;-76
2022/11/15 16:45:27;;;;;;;0.10;0.10;;;;;;;11.26;100.00;100255.34;10542899;28;20040;-74
2022/11/15 16:50:57;;;;;;;0.32;0.10;;;;;;;11.25;100.00;100248.44;10542345;28;20044;-75
2022/11/15 16:55:59;;;;;;;0.13;0.13;;;;;;;11.27;100.00;100240.75;10530723;28;20036;-76
2022/11/15 17:01:01;;;;;;;0.30;0.30;;;;;;;11.39;100.00;100235.72;10514541;28;20113;-75
2022/11/15 17:06:03;;;;;;;1.08;0.65;;;;;;;11.42;100.00;100243.50;10500251;28;20086;-75
2022/11/15 17:11:05;;;;;;;0.20;0.20;;;;;;;11.49;100.00;100231.53;10534038;28;20124;-75
2022/11/15 17:16:13;;;;;;;0.90;0.30;;;;;;;11.49;100.00;100228.94;10540627;28;20399;-75
2022/11/15 17:21:18;;;;;;;0.03;0.03;;;;;;;11.55;100.00;100215.25;10519620;28;20040;-75
2022/11/15 17:26:20;;;;;;;0.30;0.30;;;;;;;11.61;100.00;100220.47;10518332;28;20048;-76
2022/11/15 17:31:33;;;;;;;0.52;0.20;;;;;;;11.59;100.00;100212.75;10519668;28;20078;-76
2022/11/15 17:36:35;;;;;;;0.43;0.40;;;;;;;11.65;100.00;100211.06;10543135;28;20048;-77
2022/11/15 17:41:36;;;;;;;0.75;0.43;;;;;;;11.73;100.00;100212.84;10524558;28;20048;-76
2022/11/15 17:46:39;;;;;;;2.50;2.05;;;;;;;11.69;100.00;100205.94;10541226;28;20046;-77
2022/11/15 17:51:41;;;;;;;3.53;2.53;;;;;;;11.76;100.00;100222.38;10521745;28;20028;-77
2022/11/15 17:56:51;;;;;;;1.38;1.02;;;;;;;11.78;100.00;100224.97;10536570;28;20093;-76
2022/11/15 18:01:53;;;;;;;2.53;1.02;;;;;;;11.82;100.00;100221.56;10533751;28;20040;-76
2022/11/15 18:06:55;;;;;;;0.47;0.30;;;;;;;11.78;100.00;100217.22;10526559;28;20071;-76
2022/11/15 18:11:57;;;;;;;0.13;0.10;;;;;;;11.78;100.00;100212.91;10529107;28;20115;-76
2022/11/15 18:16:59;;;;;;;0.05;0.05;;;;;;;11.77;100.00;100215.47;10515530;28;20036;-74
2022/11/15 18:22:03;;;;;;;0.10;0.10;;;;;;;11.81;100.00;100212.06;10508873;28;20529;-75
2022/11/15 18:27:05;;;;;;;0.40;0.40;;;;;;;11.79;100.00;100208.63;10509216;28;20049;-75
2022/11/15 18:32:11;;;;;;;0.70;0.35;;;;;;;11.82;100.00;100213.81;10532148;28;20118;-76
2022/11/15 18:37:13;;;;;;;1.35;0.77;;;;;;;11.66;100.00;100198.16;10513886;28;20134;-75
2022/11/15 18:42:15;;;;;;;3.55;2.53;;;;;;;11.60;100.00;100198.09;10529511;28;20032;-76
2022/11/15 18:47:16;;;;;;;0.68;0.68;;;;;;;11.64;100.00;100194.72;10532859;28;20561;-75
2022/11/15 18:52:18;;;;;;;2.42;0.80;;;;;;;11.45;100.00;100187.63;10531138;28;20048;-75
2022/11/15 18:57:20;;;;;;;0.77;0.70;;;;;;;11.44;100.00;100191.94;10521734;28;20056;-76
2022/11/15 19:02:21;;;;;;;0.98;0.82;;;;;;;11.35;100.00;100205.59;10500806;28;20049;-74
2022/11/15 19:07:25;;;;;;;1.70;1.08;;;;;;;10.94;100.00;100213.69;10530964;28;20039;-75
2022/11/15 19:12:26;;;;;;;0.35;0.30;;;;;;;10.95;100.00;100233.44;10505704;28;20115;-76
2022/11/15 19:17:28;;;;;;;0.90;0.77;;;;;;;10.88;100.00;100239.38;10534236;28;20039;-78
2022/11/15 19:22:30;;;;;;;0.52;0.30;;;;;;;10.88;100.00;100252.25;10549065;28;20039;-78
2022/11/15 19:27:32;;;;;;;0.25;0.20;;;;;;;10.83;100.00;100259.06;10529486;28;20052;-77
2022/11/15 19:32:38;;;;;;;1.45;0.75;;;;;;;10.79;100.00;100269.31;10531848;28;20040;-77
2022/11/15 19:37:40;;;;;;;0.47;0.47;;;;;;;10.70;100.00;100284.63;10544650;28;20051;-78
2022/11/15 19:42:42;;;;;;;0.50;0.50;;;;;;;10.61;100.00;100307.69;10552960;28;20043;-79
2022/11/15 19:54:36;;;;;;;0.40;0.20;;;;;;;10.46;100.00;100360.66;10538815;28;20031;-79
2022/11/15 19:59:38;;;;;;;0.55;0.20;;;;;;;10.42;100.00;100376.03;10505128;28;20109;-78
2022/11/15 20:04:40;;;;;;;2.15;1.10;;;;;;;10.42;100.00;100392.34;10506874;28;20045;-78
2022/11/15 20:09:42;;;;;;;0.82;0.47;;;;;;;10.33;100.00;100405.00;10488336;28;20044;-78
2022/11/15 20:14:44;;;;;;;0.20;0.10;;;;;;;10.33;100.00;100410.16;10488333;28;20056;-78
2022/11/15 20:19:46;;;;;;;0.68;0.47;;;;;;;10.34;100.00;100421.34;10520783;28;20055;-78
2022/11/15 20:24:48;;;;;;;0.10;0.10;;;;;;;10.31;100.00;100419.59;10487967;28;20044;-77
2022/11/15 20:29:52;;;;;;;2.03;0.55;;;;;;;10.29;100.00;100421.25;10557251;28;20479;-78
2022/11/15 20:34:54;;;;;;;1.55;0.73;;;;;;;10.30;100.00;100531.13;10529385;28;20040;-78
2022/11/15 20:39:56;;;;;;;0.95;0.77;;;;;;;10.31;100.00;100538.03;10528382;28;20139;-77
2022/11/15 20:44:57;;;;;;;6.43;3.00;;;;;;;10.34;100.00;100545.81;10524590;28;20047;-79
2022/11/15 20:49:59;;;;;;;2.92;1.63;;;;;;;10.31;100.00;100548.34;10544209;28;20048;-78
2022/11/15 20:55:21;;;;;;;0.28;0.25;;;;;;;10.37;100.00;100553.63;10544274;28;20032;-77
2022/11/15 21:00:24;;;;;;;1.15;0.57;;;;;;;10.38;100.00;100555.38;10529317;28;20075;-78
2022/11/15 21:05:27;;;;;;;2.47;1.25;;;;;;;10.41;100.00;100558.00;10526611;28;20483;-79
2022/11/15 21:17:29;;;;;;;1.50;0.90;;;;;;;10.42;100.00;100564.91;10543916;28;20417;-79
2022/11/15 21:22:31;;;;;;;1.10;0.70;;;;;;;10.45;100.00;100572.69;10543654;28;20036;-79
2022/11/15 21:27:32;;;;;;;1.88;0.50;;;;;;;10.48;100.00;100583.06;10522904;28;20052;-79
2022/11/15 21:32:34;;;;;;;0.28;0.10;;;;;;;10.47;100.00;100575.28;10523167;28;20426;-79
2022/11/15 21:37:37;;;;;;;1.10;0.50;;;;;;;10.48;100.00;100588.19;10534734;28;20039;-79
2022/11/15 21:42:38;;;;;;;2.17;0.50;;;;;;;10.49;100.00;100583.94;10543156;28;20037;-79
2022/11/15 21:47:40;;;;;;;2.50;1.67;;;;;;;10.48;100.00;100583.06;10537636;28;20039;-80
2022/11/15 21:52:46;;;;;;;0.30;0.30;;;;;;;10.55;100.00;100583.16;10538568;28;20044;-79
2022/11/15 21:57:48;;;;;;;0.68;0.32;;;;;;;10.54;100.00;100581.44;10531713;28;20144;-78
2022/11/15 22:02:51;;;;;;;3.95;0.60;;;;;;;10.50;100.00;100577.06;10537085;28;20047;-78
2022/11/15 22:07:53;;;;;;;0.40;0.40;;;;;;;10.53;100.00;100585.72;10541372;28;20127;-78
2022/11/15 22:12:54;;;;;;;3.22;1.65;;;;;;;10.51;100.00;100576.22;10529174;28;20040;-78
2022/11/15 22:17:59;;;;;;;2.30;0.80;;;;;;;10.51;100.00;100577.09;10534060;28;20043;-79
2022/11/15 22:23:02;;;;;;;1.02;0.57;;;;;;;10.51;100.00;100579.66;10532094;28;20044;-79
2022/11/15 22:28:03;;;;;;;1.83;1.10;;;;;;;10.47;100.00;100581.31;10517607;28;20403;-79
2022/11/15 22:33:06;;;;;;;0.65;0.47;;;;;;;10.47;100.00;100576.16;10523508;28;20047;-79
2022/11/15 22:38:11;;;;;;;0.82;0.70;;;;;;;10.52;100.00;100580.56;10508889;28;20049;-77
2022/11/15 22:43:15;;;;;;;0.85;0.20;;;;;;;10.53;100.00;100575.41;10511743;28;20048;-78
2022/11/15 22:48:18;;;;;;;0.35;0.10;;;;;;;10.52;100.00;100572.81;10522639;28;20052;-78
2022/11/15 22:53:20;;;;;;;0.10;0.10;;;;;;;10.53;100.00;100569.41;10522422;28;20048;-77
2022/11/15 22:58:23;;;;;;;0.43;0.35;;;;;;;10.56;100.00;100574.63;10540239;28;20052;-78
2022/11/15 23:03:26;;;;;;;0.15;0.10;;;;;;;10.58;100.00;100578.94;10540270;28;20048;-77
2022/11/15 23:08:28;;;;;;;0.20;0.10;;;;;;;10.60;100.00;100573.84;10522152;28;20055;-78
2022/11/15 23:13:31;;;;;;;0.47;0.35;;;;;;;10.62;100.00;100583.34;10521873;28;20101;-78
2022/11/15 23:25:32;;;;;;;0.45;0.40;;;;;;;10.59;100.00;100560.09;10535518;28;20028;-79
2022/11/15 23:35:55;;;;;;;0.85;0.70;;;;;;;10.64;100.00;100560.19;10536619;28;20072;-79
2022/11/15 23:40:58;;;;;;;0.28;0.28;;;;;;;10.66;100.00;100566.25;10491866;28;20389;-80
2022/11/15 23:46:00;;;;;;;2.03;0.85;;;;;;;10.66;100.00;100555.94;10508052;28;20044;-80
2022/11/15 23:51:02;;;;;;;1.13;0.70;;;;;;;10.66;100.00;100555.06;10526651;28;20048;-80
2022/11/15 23:56:13;;;;;;;0.90;0.55;;;;;;;10.64;100.00;100552.44;10517549;28;20040;-80
